Time;durP1;ratioP1;P1;durP2;ratioP2;P2;SDS_P1;SDS_P2;PMS_P1;PMS_P2;Temp;Humidity;BMP_temperature;BMP_pressure;BME280_temperature;BME280_humidity;BME280_pressure;Samples;Min_cycle;Max_cycle;Signal;HPM_P1;HPM_P2
2023/03/23 00:02:26;;;;;;;;;;;;;;;16.27;100.00;97865.50;5037692;28;20332;-55
2023/03/23 00:04:52;;;;;;;;;;;;;;;16.26;100.00;97861.22;5036360;28;20332;-54
2023/03/23 00:07:21;;;;;;;;;;;;;;;16.15;100.00;97869.84;5036778;28;19920;-54
2023/03/23 00:09:53;;;;;;;;;;;;;;;15.98;100.00;97883.19;5037044;28;20228;-55
2023/03/23 00:12:28;;;;;;;;;;;;;;;15.19;100.00;97918.94;5035987;28;20392;-54
2023/03/23 00:14:54;;;;;;;;;;;;;;;16.39;100.00;97898.38;5037244;28;20449;-54
2023/03/23 00:17:19;;;;;;;;;;;;;;;16.12;100.00;97883.03;5037246;28;19987;-54
2023/03/23 00:19:47;;;;;;;;;;;;;;;15.88;100.00;97883.03;5036374;28;20077;-53
2023/03/23 00:22:13;;;;;;;;;;;;;;;15.41;100.00;97911.34;5037288;28;19913;-52
2023/03/23 00:24:38;;;;;;;;;;;;;;;15.72;100.00;97922.25;5035657;28;20381;-51
2023/03/23 00:27:04;;;;;;;;;;;;;;;15.61;100.00;97917.75;5038367;28;19962;-55
2023/03/23 00:29:29;;;;;;;;;;;;;;;15.27;100.00;97940.84;5036375;28;20191;-54
2023/03/23 00:31:56;;;;;;;;;;;;;;;15.14;100.00;97940.00;5037207;28;19919;-53
2023/03/23 00:34:21;;;;;;;;;;;;;;;15.81;100.00;97944.13;5036020;28;19924;-51
2023/03/23 00:36:48;;;;;;;;;;;;;;;15.35;100.00;97971.47;5036586;28;19939;-53
2023/03/23 00:39:15;;;;;;;;;;;;;;;14.82;100.00;97981.03;5037635;28;20482;-51
2023/03/23 00:41:41;;;;;;;;;;;;;;;15.68;100.00;98017.63;5037391;28;19913;-53
2023/03/23 00:44:08;;;;;;;;;;;;;;;15.35;100.00;98041.50;5033748;28;19947;-52
2023/03/23 00:46:33;;;;;;;;;;;;;;;15.60;100.00;98022.50;5037190;28;19921;-51
2023/03/23 00:48:58;;;;;;;;;;;;;;;15.56;100.00;98048.78;5036794;28;20390;-52
2023/03/23 00:51:24;;;;;;;;;;;;;;;15.64;100.00;98046.47;5037332;28;20320;-53
2023/03/23 00:53:49;;;;;;;;;;;;;;;15.25;100.00;98020.50;5036307;28;20340;-52
2023/03/23 00:56:14;;;;;;;;;;;;;;;15.92;100.00;98048.06;5035874;28;19920;-51
2023/03/23 00:58:40;;;;;;;;;;;;;;;15.99;100.00;98022.50;5036393;28;19960;-52
2023/03/23 01:01:06;;;;;;;;;;;;;;;15.66;100.00;98016.06;5037339;28;20175;-52
2023/03/23 01:03:31;;;;;;;;;;;;;;;15.55;100.00;98028.94;5036663;28;19917;-53
2023/03/23 01:05:57;;;;;;;;;;;;;;;15.57;100.00;98029.66;5035527;28;19983;-52
2023/03/23 01:08:22;;;;;;;;;;;;;;;16.02;100.00;98027.47;5036083;28;19977;-51
2023/03/23 01:10:48;;;;;;;;;;;;;;;15.61;100.00;98003.41;5036680;28;19925;-53
2023/03/23 01:13:13;;;;;;;;;;;;;;;15.94;100.00;97996.00;5035737;28;19924;-53
2023/03/23 01:15:39;;;;;;;;;;;;;;;16.09;100.00;98002.72;5036666;28;19955;-52
2023/03/23 01:18:04;;;;;;;;;;;;;;;15.57;100.00;97995.94;5036546;28;19917;-52
2023/03/23 01:20:31;;;;;;;;;;;;;;;16.09;100.00;98005.31;5035956;28;19939;-52
2023/03/23 01:23:00;;;;;;;;;;;;;;;15.78;100.00;98006.63;5035520;28;20366;-52
2023/03/23 01:25:25;;;;;;;;;;;;;;;15.67;100.00;97995.19;5034629;28;20070;-53
2023/03/23 01:27:50;;;;;;;;;;;;;;;15.94;100.00;97965.66;5036530;28;19939;-54
2023/03/23 01:30:16;;;;;;;;;;;;;;;15.71;100.00;97982.84;5035636;28;19964;-53
2023/03/23 01:32:41;;;;;;;;;;;;;;;15.66;100.00;97977.13;5035866;28;19971;-51
2023/03/23 01:35:07;;;;;;;;;;;;;;;15.81;100.00;97986.50;5035469;28;20402;-53
2023/03/23 01:37:32;;;;;;;;;;;;;;;15.63;100.00;97980.78;5036026;28;19928;-51
2023/03/23 01:39:57;;;;;;;;;;;;;;;15.31;100.00;98002.91;5036248;28;19999;-52
2023/03/23 01:42:26;;;;;;;;;;;;;;;15.21;100.00;98024.28;5036172;28;19951;-51
2023/03/23 01:44:51;;;;;;;;;;;;;;;15.90;100.00;98000.59;5033341;28;19929;-53
2023/03/23 01:47:17;;;;;;;;;;;;;;;16.10;100.00;97975.81;5036036;28;20517;-50
2023/03/23 01:49:45;;;;;;;;;;;;;;;15.59;100.00;97962.91;5033670;28;19917;-53
2023/03/23 01:52:16;;;;;;;;;;;;;;;15.73;100.00;97949.00;5035981;28;19917;-54
2023/03/23 01:54:44;;;;;;;;;;;;;;;16.45;100.00;97929.09;5034813;28;19916;-53
2023/03/23 01:57:11;;;;;;;;;;;;;;;15.42;100.00;97958.91;5034138;28;19920;-51
2023/03/23 01:59:36;;;;;;;;;;;;;;;15.78;100.00;97991.91;5033593;28;19916;-52
2023/03/23 02:02:02;;;;;;;;;;;;;;;15.79;100.00;97980.56;5033802;28;19928;-53
2023/03/23 02:04:27;;;;;;;;;;;;;;;15.46;100.00;97968.97;5032778;28;19917;-52
2023/03/23 02:06:52;;;;;;;;;;;;;;;15.88;100.00;97974.72;5035711;28;19932;-53
2023/03/23 02:09:18;;;;;;;;;;;;;;;16.09;100.00;97943.00;5033042;28;19947;-53
2023/03/23 02:11:43;;;;;;;;;;;;;;;15.56;100.00;97978.72;5035912;28;20928;-51
2023/03/23 02:14:09;;;;;;;;;;;;;;;15.87;100.00;97986.06;5033792;28;19917;-51
2023/03/23 02:16:37;;;;;;;;;;;;;;;16.07;100.00;97971.66;5035182;28;20168;-54
2023/03/23 02:19:08;;;;;;;;;;;;;;;16.21;100.00;97999.25;5035515;28;20332;-50
2023/03/23 02:21:44;;;;;;;;;;;;;;;15.11;100.00;98024.97;5033295;28;19916;-51
2023/03/23 02:24:28;;;;;;;;;;;;;;;15.78;100.00;98049.00;5016227;28;20391;-52
2023/03/23 02:27:08;;;;;;;;;;;;;;;16.10;100.00;98039.00;5035228;28;20054;-49
2023/03/23 02:29:54;;;;;;;;;;;;;;;16.53;100.00;98029.91;5034032;28;19921;-51
2023/03/23 02:32:39;;;;;;;;;;;;;;;15.80;100.00;97999.56;5035410;28;19979;-52
2023/03/23 02:35:12;;;;;;;;;;;;;;;15.11;100.00;98071.66;5033756;28;20297;-49
2023/03/23 02:37:48;;;;;;;;;;;;;;;16.06;100.00;98065.28;5033733;28;20286;-49
2023/03/23 02:40:18;;;;;;;;;;;;;;;14.88;100.00;98112.03;5032640;28;20563;-49
2023/03/23 02:42:44;;;;;;;;;;;;;;;15.63;100.00;98102.75;5033782;28;19920;-51
2023/03/23 02:45:10;;;;;;;;;;;;;;;14.68;100.00;98121.88;5029555;28;19955;-48
2023/03/23 02:47:35;;;;;;;;;;;;;;;14.95;100.00;98168.56;5035220;28;20653;-51
2023/03/23 02:50:01;;;;;;;;;;;;;;;15.88;100.00;98164.28;5033243;28;19967;-49
2023/03/23 02:52:27;;;;;;;;;;;;;;;15.55;100.00;98114.56;5033218;28;19927;-49
2023/03/23 02:54:53;;;;;;;;;;;;;;;14.45;100.00;98154.38;5032402;28;20136;-47
2023/03/23 02:57:18;;;;;;;;;;;;;;;14.47;100.00;98250.97;5034446;28;20274;-50
2023/03/23 02:59:43;;;;;;;;;;;;;;;15.06;100.00;98287.19;5035059;28;19968;-48
2023/03/23 03:02:13;;;;;;;;;;;;;;;15.10;100.00;98312.00;5039603;28;20872;-49
2023/03/23 03:04:40;;;;;;;;;;;;;;;15.35;100.00;98297.47;5035651;28;19935;-48
2023/03/23 03:07:12;;;;;;;;;;;;;;;14.68;100.00;98338.75;5039001;28;20392;-48
2023/03/23 03:09:53;;;;;;;;;;;;;;;14.99;100.00;98367.09;5038285;28;19921;-48
2023/03/23 03:12:24;;;;;;;;;;;;;;;15.30;100.00;98362.63;5037385;28;19939;-50
2023/03/23 03:14:52;;;;;;;;;;;;;;;13.92;100.00;98337.06;5036905;28;19920;-48
2023/03/23 03:17:20;;;;;;;;;;;;;;;13.83;100.00;98399.69;5036607;28;20247;-51
2023/03/23 03:19:45;;;;;;;;;;;;;;;13.90;100.00;98483.84;5037582;28;20338;-48
2023/03/23 03:22:11;;;;;;;;;;;;;;;13.86;100.00;98523.75;5036667;28;19913;-50
2023/03/23 03:24:40;;;;;;;;;;;;;;;13.52;100.00;98587.59;5035297;28;19956;-50
2023/03/23 03:27:06;;;;;;;;;;;;;;;13.58;100.00;98704.56;5037931;28;20381;-50
2023/03/23 03:29:35;;;;;;;;;;;;;;;13.25;100.00;98755.28;5037160;28;19936;-48
2023/03/23 03:32:01;;;;;;;;;;;;;;;13.74;100.00;98839.22;5037726;28;20065;-50
2023/03/23 03:34:26;;;;;;;;;;;;;;;13.75;100.00;98873.69;5037564;28;19995;-47
2023/03/23 03:36:52;;;;;;;;;;;;;;;13.38;100.00;98881.41;5037281;28;19916;-48
2023/03/23 03:39:19;;;;;;;;;;;;;;;14.05;100.00;98945.63;5035641;28;19924;-48
2023/03/23 03:41:45;;;;;;;;;;;;;;;14.08;100.00;98987.78;5037832;28;19978;-47
2023/03/23 03:44:10;;;;;;;;;;;;;;;14.35;100.00;98971.84;5035831;28;19920;-47
2023/03/23 03:46:36;;;;;;;;;;;;;;;14.37;100.00;98942.38;5037845;28;20294;-53
2023/03/23 03:49:02;;;;;;;;;;;;;;;14.23;100.00;98911.97;5037917;28;19921;-47
2023/03/23 03:51:28;;;;;;;;;;;;;;;14.14;100.00;98889.09;5034756;28;19924;-49
2023/03/23 03:53:54;;;;;;;;;;;;;;;14.52;100.00;98886.34;5037004;28;20350;-48
2023/03/23 03:56:22;;;;;;;;;;;;;;;13.65;100.00;98852.59;5037151;28;20089;-48
2023/03/23 03:58:48;;;;;;;;;;;;;;;13.96;100.00;98889.97;5036477;28;19916;-49
2023/03/23 04:01:14;;;;;;;;;;;;;;;13.99;100.00;98898.41;5037131;28;19943;-47
2023/03/23 04:03:40;;;;;;;;;;;;;;;14.20;100.00;98922.44;5035213;28;20805;-49
2023/03/23 04:06:05;;;;;;;;;;;;;;;14.22;100.00;98886.94;5036801;28;19916;-47
2023/03/23 04:08:31;;;;;;;;;;;;;;;13.52;100.00;98820.44;5038050;28;19962;-50
2023/03/23 04:10:57;;;;;;;;;;;;;;;13.52;100.00;98848.88;5036466;28;19920;-49
2023/03/23 04:13:22;;;;;;;;;;;;;;;14.21;100.00;98890.47;5035446;28;20389;-51
2023/03/23 04:15:47;;;;;;;;;;;;;;;13.76;100.00;98824.44;5037086;28;19995;-52
2023/03/23 04:18:14;;;;;;;;;;;;;;;13.84;100.00;98857.72;5037902;28;19944;-50
2023/03/23 04:20:40;;;;;;;;;;;;;;;14.46;100.00;98855.59;5037282;28;19917;-49
2023/03/23 04:23:05;;;;;;;;;;;;;;;14.43;100.00;98778.00;5037052;28;19928;-51
2023/03/23 04:25:32;;;;;;;;;;;;;;;14.45;100.00;98752.84;5036349;28;19916;-52
2023/03/23 04:27:58;;;;;;;;;;;;;;;14.46;100.00;98736.41;5037228;28;19923;-50
2023/03/23 04:30:24;;;;;;;;;;;;;;;14.10;100.00;98695.09;5037436;28;19920;-47
2023/03/23 04:32:50;;;;;;;;;;;;;;;14.23;100.00;98676.25;5037619;28;20377;-50
2023/03/23 04:35:16;;;;;;;;;;;;;;;13.68;100.00;98685.97;5034029;28;19920;-51
2023/03/23 04:37:42;;;;;;;;;;;;;;;14.44;100.00;98738.22;5036135;28;20369;-50
2023/03/23 04:40:12;;;;;;;;;;;;;;;14.48;100.00;98687.91;5036233;28;20008;-50
2023/03/23 04:42:37;;;;;;;;;;;;;;;14.60;100.00;98663.13;5036352;28;19960;-50
2023/03/23 04:45:05;;;;;;;;;;;;;;;13.95;100.00;98640.59;5033911;28;19970;-50
2023/03/23 04:47:31;;;;;;;;;;;;;;;14.19;100.00;98690.28;5034995;28;20290;-49
2023/03/23 04:49:57;;;;;;;;;;;;;;;14.45;100.00;98729.53;5036946;28;19920;-49
2023/03/23 04:52:24;;;;;;;;;;;;;;;14.23;100.00;98685.75;5036662;28;20063;-49
2023/03/23 04:54:50;;;;;;;;;;;;;;;13.96;100.00;98700.97;5035636;28;20479;-50
2023/03/23 04:57:15;;;;;;;;;;;;;;;14.64;100.00;98709.53;5036776;28;19917;-50
2023/03/23 04:59:41;;;;;;;;;;;;;;;14.58;100.00;98647.66;5036677;28;20399;-49
2023/03/23 05:02:06;;;;;;;;;;;;;;;14.46;100.00;98637.94;5036599;28;20309;-50
2023/03/23 05:04:33;;;;;;;;;;;;;;;14.14;100.00;98618.91;5034277;28;19952;-49
2023/03/23 05:06:58;;;;;;;;;;;;;;;13.62;100.00;98622.44;5036408;28;19962;-50
2023/03/23 05:09:23;;;;;;;;;;;;;;;13.85;100.00;98641.16;5036087;28;19971;-51
2023/03/23 05:11:49;;;;;;;;;;;;;;;14.86;100.00;98666.91;5036300;28;19920;-50
2023/03/23 05:14:14;;;;;;;;;;;;;;;14.91;100.00;98623.41;5035966;28;19916;-50
2023/03/23 05:16:40;;;;;;;;;;;;;;;15.00;100.00;98575.38;5035142;28;20397;-50
2023/03/23 05:19:05;;;;;;;;;;;;;;;14.77;100.00;98553.34;5036714;28;19920;-49
2023/03/23 05:21:31;;;;;;;;;;;;;;;14.43;100.00;98513.72;5036685;28;19929;-49
2023/03/23 05:23:56;;;;;;;;;;;;;;;14.55;100.00;98488.91;5035675;28;19947;-50
2023/03/23 05:26:22;;;;;;;;;;;;;;;14.42;100.00;98501.72;5035927;28;19921;-51
2023/03/23 05:28:49;;;;;;;;;;;;;;;14.33;100.00;98534.13;5036016;28;19985;-49
2023/03/23 05:31:14;;;;;;;;;;;;;;;13.84;100.00;98510.03;5034437;28;19925;-49
2023/03/23 05:33:39;;;;;;;;;;;;;;;14.67;100.00;98562.56;5033350;28;19917;-49
2023/03/23 05:36:06;;;;;;;;;;;;;;;14.77;100.00;98533.44;5032716;28;20364;-49
2023/03/23 05:38:31;;;;;;;;;;;;;;;14.89;100.00;98498.19;5034964;28;20605;-50
2023/03/23 05:41:01;;;;;;;;;;;;;;;14.71;100.00;98453.44;5035768;28;19955;-49
2023/03/23 05:43:26;;;;;;;;;;;;;;;14.95;100.00;98437.38;5031891;28;20295;-50
2023/03/23 05:45:51;;;;;;;;;;;;;;;14.68;100.00;98424.28;5035920;28;20230;-49
2023/03/23 05:48:16;;;;;;;;;;;;;;;14.71;100.00;98426.69;5035329;28;20420;-52
2023/03/23 05:50:42;;;;;;;;;;;;;;;14.66;100.00;98429.53;5033164;28;20640;-51
2023/03/23 05:53:07;;;;;;;;;;;;;;;14.80;100.00;98418.38;5036370;28;19939;-50
2023/03/23 05:55:32;;;;;;;;;;;;;;;14.74;100.00;98434.28;5033812;28;19927;-50
2023/03/23 05:57:58;;;;;;;;;;;;;;;14.77;100.00;98444.47;5035329;28;20075;-49
2023/03/23 06:00:23;;;;;;;;;;;;;;;14.71;100.00;98450.00;5017111;28;20796;-51
2023/03/23 06:02:50;;;;;;;;;;;;;;;14.66;100.00;98488.31;5035189;28;19925;-52
2023/03/23 06:05:16;;;;;;;;;;;;;;;14.58;100.00;98468.03;5036429;28;19923;-51
2023/03/23 06:07:42;;;;;;;;;;;;;;;14.75;100.00;98508.53;5035189;28;19920;-49
2023/03/23 06:10:08;;;;;;;;;;;;;;;14.60;100.00;98525.78;5034990;28;20173;-50
2023/03/23 06:12:34;;;;;;;;;;;;;;;14.39;100.00;98509.63;5034536;28;19921;-50
2023/03/23 06:14:59;;;;;;;;;;;;;;;14.69;100.00;98514.06;5034952;28;20905;-50
2023/03/23 06:17:25;;;;;;;;;;;;;;;14.68;100.00;98481.28;5032990;28;19987;-50
2023/03/23 06:19:50;;;;;;;;;;;;;;;15.04;100.00;98453.22;5035699;28;20034;-51
2023/03/23 06:22:16;;;;;;;;;;;;;;;14.86;100.00;98423.19;5036829;28;20309;-50
2023/03/23 06:24:41;;;;;;;;;;;;;;;14.68;100.00;98434.63;5036951;28;19917;-51
2023/03/23 06:27:08;;;;;;;;;;;;;;;14.71;100.00;98450.88;5037519;28;19923;-52
2023/03/23 06:29:34;;;;;;;;;;;;;;;14.77;100.00;98460.03;5036636;28;19916;-50
2023/03/23 06:32:00;;;;;;;;;;;;;;;14.81;100.00;98440.78;5033817;28;19920;-50
2023/03/23 06:34:25;;;;;;;;;;;;;;;14.61;100.00;98447.13;5030628;28;20051;-50
2023/03/23 06:36:51;;;;;;;;;;;;;;;14.29;100.00;98473.06;5041221;28;20007;-50
2023/03/23 06:39:16;;;;;;;;;;;;;;;14.33;100.00;98465.97;5040904;28;19921;-49
2023/03/23 06:41:42;;;;;;;;;;;;;;;14.59;100.00;98522.34;5040911;28;19916;-51
2023/03/23 06:44:08;;;;;;;;;;;;;;;14.82;100.00;98489.09;5039470;28;19917;-49
2023/03/23 06:46:33;;;;;;;;;;;;;;;14.28;100.00;98509.38;5040793;28;20019;-51
2023/03/23 06:48:59;;;;;;;;;;;;;;;15.05;100.00;98545.69;5041230;28;20471;-52
2023/03/23 06:51:24;;;;;;;;;;;;;;;15.05;100.00;98493.81;5040860;28;20441;-51
2023/03/23 06:53:49;;;;;;;;;;;;;;;15.12;100.00;98460.56;5040265;28;19916;-52
2023/03/23 06:56:15;;;;;;;;;;;;;;;14.70;100.00;98444.00;5041485;28;19919;-51
2023/03/23 06:58:41;;;;;;;;;;;;;;;14.87;100.00;98473.28;5040273;28;20163;-51
2023/03/23 07:01:08;;;;;;;;;;;;;;;14.63;100.00;98421.94;5041381;28;19916;-51
2023/03/23 07:03:33;;;;;;;;;;;;;;;14.51;100.00;98433.81;5040643;28;20234;-51
2023/03/23 07:05:59;;;;;;;;;;;;;;;14.18;100.00;98476.22;5041510;28;19913;-51
2023/03/23 07:08:24;;;;;;;;;;;;;;;14.62;100.00;98483.31;5040448;28;20044;-50
2023/03/23 07:10:53;;;;;;;;;;;;;;;15.10;100.00;98477.13;5041601;28;19987;-51
2023/03/23 07:13:19;;;;;;;;;;;;;;;14.36;100.00;98479.56;5041139;28;19924;-50
2023/03/23 07:15:45;;;;;;;;;;;;;;;15.18;100.00;98478.34;5041682;28;20356;-51
2023/03/23 07:18:10;;;;;;;;;;;;;;;15.44;100.00;98424.91;5041420;28;20181;-51
2023/03/23 07:20:35;;;;;;;;;;;;;;;15.20;100.00;98379.69;5041079;28;19924;-54
2023/03/23 07:23:05;;;;;;;;;;;;;;;14.85;100.00;98370.53;5040737;28;20209;-51
2023/03/23 07:25:30;;;;;;;;;;;;;;;15.53;100.00;98370.75;5039885;28;20441;-53
2023/03/23 07:27:56;;;;;;;;;;;;;;;14.89;100.00;98355.59;5040734;28;19924;-51
2023/03/23 07:30:21;;;;;;;;;;;;;;;15.43;100.00;98376.50;5040449;28;20288;-51
2023/03/23 07:32:46;;;;;;;;;;;;;;;15.26;100.00;98369.78;5041381;28;20005;-53
2023/03/23 07:35:12;;;;;;;;;;;;;;;14.63;100.00;98350.22;5039408;28;19952;-52
2023/03/23 07:37:37;;;;;;;;;;;;;;;14.88;100.00;98394.59;5040969;28;20334;-51
2023/03/23 07:40:14;;;;;;;;;;;;;;;15.19;100.00;98380.59;5041202;28;19916;-51
2023/03/23 07:42:40;;;;;;;;;;;;;;;15.63;100.00;98345.91;5041206;28;19969;-52
2023/03/23 07:45:05;;;;;;;;;;;;;;;15.37;100.00;98311.19;5038957;28;19913;-52
2023/03/23 07:47:31;;;;;;;;;;;;;;;14.98;100.00;98277.25;5036076;28;19961;-51
2023/03/23 07:49:56;;;;;;;;;;;;;;;15.67;100.00;98290.28;5037822;28;19959;-52
2023/03/23 07:52:21;;;;;;;;;;;;;;;15.04;100.00;98260.50;5038130;28;19923;-53
2023/03/23 07:54:47;;;;;;;;;;;;;;;14.88;100.00;98271.00;5036377;28;19917;-51
2023/03/23 07:57:12;;;;;;;;;;;;;;;15.58;100.00;98298.66;5038023;28;20109;-53
2023/03/23 07:59:37;;;;;;;;;;;;;;;15.27;100.00;98287.59;5037458;28;19916;-51
2023/03/23 08:02:03;;;;;;;;;;;;;;;15.64;100.00;98270.50;5037803;28;19913;-52
2023/03/23 08:04:29;;;;;;;;;;;;;;;14.97;100.00;98236.72;5036990;28;20158;-52
2023/03/23 08:06:54;;;;;;;;;;;;;;;15.43;100.00;98246.78;5037775;28;20162;-54
2023/03/23 08:09:19;;;;;;;;;;;;;;;14.94;100.00;98234.31;5036917;28;19944;-53
2023/03/23 08:11:44;;;;;;;;;;;;;;;15.43;100.00;98235.56;5037790;28;19989;-52
2023/03/23 08:14:10;;;;;;;;;;;;;;;15.19;100.00;98202.50;5037145;28;19917;-53
2023/03/23 08:16:35;;;;;;;;;;;;;;;15.52;100.00;98203.03;5037546;28;19988;-54
2023/03/23 08:19:00;;;;;;;;;;;;;;;15.40;100.00;98200.28;5037833;28;19947;-52
2023/03/23 08:21:26;;;;;;;;;;;;;;;14.52;100.00;98191.94;5036735;28;20770;-52
2023/03/23 08:23:52;;;;;;;;;;;;;;;15.78;100.00;98189.19;5037120;28;19917;-53
2023/03/23 08:26:17;;;;;;;;;;;;;;;15.71;100.00;98180.13;5037213;28;20381;-52
2023/03/23 08:28:43;;;;;;;;;;;;;;;15.84;100.00;98141.22;5037608;28;19912;-52
2023/03/23 08:31:12;;;;;;;;;;;;;;;16.18;100.00;98139.75;5036742;28;19928;-52
2023/03/23 08:33:37;;;;;;;;;;;;;;;15.73;100.00;98107.34;5036423;28;20277;-54
2023/03/23 08:36:03;;;;;;;;;;;;;;;16.14;100.00;98127.91;5036896;28;19995;-52
2023/03/23 08:38:28;;;;;;;;;;;;;;;15.29;100.00;98095.56;5037130;28;20000;-54
2023/03/23 08:40:58;;;;;;;;;;;;;;;15.74;100.00;98094.28;5037035;28;19991;-52
2023/03/23 08:43:23;;;;;;;;;;;;;;;15.69;100.00;98127.44;5034760;28;20503;-54
2023/03/23 08:45:49;;;;;;;;;;;;;;;15.89;100.00;98119.19;5036479;28;19988;-55
2023/03/23 08:48:15;;;;;;;;;;;;;;;15.15;100.00;98079.13;5036204;28;19928;-52
2023/03/23 08:50:40;;;;;;;;;;;;;;;16.14;100.00;98114.91;5036754;28;20018;-54
2023/03/23 08:53:07;;;;;;;;;;;;;;;16.00;100.00;98079.50;5036844;28;20547;-54
2023/03/23 08:55:32;;;;;;;;;;;;;;;16.26;100.00;98090.72;5035582;28;19913;-54
2023/03/23 08:57:57;;;;;;;;;;;;;;;17.13;100.00;98038.59;5036605;28;19916;-53
2023/03/23 09:00:24;;;;;;;;;;;;;;;15.51;100.00;98035.25;5035619;28;19921;-57
2023/03/23 09:02:51;;;;;;;;;;;;;;;16.77;100.00;98016.91;5036839;28;19916;-55
2023/03/23 09:05:17;;;;;;;;;;;;;;;16.84;100.00;97973.94;5035709;28;19917;-53
2023/03/23 09:07:43;;;;;;;;;;;;;;;16.09;100.00;97979.34;5036976;28;19917;-55
2023/03/23 09:10:09;;;;;;;;;;;;;;;15.48;100.00;97979.22;5036702;28;19925;-54
2023/03/23 09:12:35;;;;;;;;;;;;;;;16.31;100.00;98022.81;5035002;28;20192;-53
2023/03/23 09:15:05;;;;;;;;;;;;;;;15.50;100.00;97971.34;5034114;28;19920;-54
2023/03/23 09:17:31;;;;;;;;;;;;;;;15.27;100.00;97981.50;5036238;28;20541;-54
2023/03/23 09:19:56;;;;;;;;;;;;;;;15.96;100.00;97996.72;5035872;28;20038;-54
2023/03/23 09:22:23;;;;;;;;;;;;;;;15.80;100.00;97981.41;5035744;28;19964;-53
2023/03/23 09:24:48;;;;;;;;;;;;;;;16.83;100.00;97974.91;5035508;28;20516;-55
2023/03/23 09:27:14;;;;;;;;;;;;;;;16.15;100.00;97973.72;5035430;28;19928;-52
2023/03/23 09:29:40;;;;;;;;;;;;;;;15.91;100.00;97978.88;5036375;28;20771;-54
2023/03/23 09:32:07;;;;;;;;;;;;;;;17.12;100.00;97993.50;5036121;28;19924;-55
2023/03/23 09:34:35;;;;;;;;;;;;;;;17.06;100.00;97938.50;5034803;28;19916;-52
2023/03/23 09:37:04;;;;;;;;;;;;;;;16.95;100.00;97947.13;5036140;28;19952;-52
2023/03/23 09:39:30;;;;;;;;;;;;;;;15.93;100.00;97958.00;5035375;28;19923;-54
2023/03/23 09:41:58;;;;;;;;;;;;;;;16.11;100.00;97961.91;5036122;28;20381;-53
2023/03/23 09:44:42;;;;;;;;;;;;;;;16.77;100.00;97938.91;5032625;28;20066;-55
2023/03/23 09:47:10;;;;;;;;;;;;;;;17.06;100.00;97926.34;5035467;28;19959;-54
2023/03/23 09:49:40;;;;;;;;;;;;;;;16.88;100.00;97909.53;5035916;28;20100;-54
2023/03/23 09:52:08;;;;;;;;;;;;;;;17.28;100.00;97890.88;5034346;28;19917;-55
2023/03/23 09:54:38;;;;;;;;;;;;;;;17.16;100.00;97865.81;5032948;28;19916;-52
2023/03/23 09:57:04;;;;;;;;;;;;;;;16.97;100.00;97888.03;5034718;28;19916;-54
2023/03/23 09:59:42;;;;;;;;;;;;;;;16.17;100.00;97898.28;5034256;28;19916;-55
2023/03/23 10:02:10;;;;;;;;;;;;;;;17.25;100.00;97875.50;5036254;28;19975;-55
2023/03/23 10:04:43;;;;;;;;;;;;;;;16.64;100.00;97858.38;5034624;28;20000;-55
2023/03/23 10:07:11;;;;;;;;;;;;;;;16.17;100.00;97900.88;5034627;28;19913;-53
2023/03/23 10:09:36;;;;;;;;;;;;;;;16.28;100.00;97896.56;5033167;28;20015;-52
2023/03/23 10:12:05;;;;;;;;;;;;;;;16.06;100.00;97896.47;5033398;28;20385;-52
2023/03/23 10:14:36;;;;;;;;;;;;;;;15.93;100.00;97912.09;5033858;28;19917;-52
2023/03/23 10:17:13;;;;;;;;;;;;;;;15.54;100.00;97931.28;5034404;28;20179;-55
2023/03/23 10:19:42;;;;;;;;;;;;;;;16.40;100.00;97914.78;5034404;28;20622;-54
2023/03/23 10:22:11;;;;;;;;;;;;;;;17.34;100.00;97893.00;5035770;28;19956;-55
2023/03/23 10:24:43;;;;;;;;;;;;;;;17.42;100.00;97872.41;5033891;28;19978;-53
2023/03/23 10:27:08;;;;;;;;;;;;;;;16.55;100.00;97860.84;5035255;28;20429;-54
2023/03/23 10:29:36;;;;;;;;;;;;;;;18.08;100.00;97841.16;5035517;28;19966;-55
2023/03/23 10:32:04;;;;;;;;;;;;;;;18.89;100.00;97809.31;5033568;28;19921;-55
2023/03/23 10:34:35;;;;;;;;;;;;;;;17.46;100.00;97819.16;5033448;28;19913;-53
2023/03/23 10:37:04;;;;;;;;;;;;;;;17.79;100.00;97817.44;5034492;28;19917;-54
2023/03/23 10:39:31;;;;;;;;;;;;;;;18.28;100.00;97804.81;5032817;28;19917;-54
2023/03/23 10:42:02;;;;;;;;;;;;;;;17.91;100.00;97811.28;5034322;28;19923;-54
2023/03/23 10:44:27;;;;;;;;;;;;;;;17.41;100.00;97818.72;5032334;28;20364;-55
2023/03/23 10:47:06;;;;;;;;;;;;;;;17.50;100.00;97823.19;5033530;28;20000;-54
2023/03/23 10:49:34;;;;;;;;;;;;;;;17.94;100.00;97804.97;5034878;28;20532;-55
2023/03/23 10:52:04;;;;;;;;;;;;;;;16.94;100.00;97825.84;5034720;28;19932;-54
2023/03/23 10:54:38;;;;;;;;;;;;;;;17.66;100.00;97821.97;5033180;28;19924;-54
2023/03/23 10:57:12;;;;;;;;;;;;;;;17.38;100.00;97821.56;5035560;28;20388;-55
2023/03/23 10:59:40;;;;;;;;;;;;;;;17.65;100.00;97809.91;5033070;28;19921;-55
2023/03/23 11:02:18;;;;;;;;;;;;;;;16.48;100.00;97839.69;5034206;28;19959;-55
2023/03/23 11:04:54;;;;;;;;;;;;;;;17.87;100.00;97830.69;5032391;28;19917;-54
2023/03/23 11:07:20;;;;;;;;;;;;;;;16.99;100.00;97834.13;5033627;28;20021;-54
2023/03/23 11:09:52;;;;;;;;;;;;;;;17.21;100.00;97833.28;5034002;28;20216;-54
2023/03/23 11:12:18;;;;;;;;;;;;;;;17.49;100.00;97839.78;5034344;28;19932;-58
2023/03/23 11:14:44;;;;;;;;;;;;;;;17.53;100.00;97816.91;5033821;28;19978;-55
2023/03/23 11:17:26;;;;;;;;;;;;;;;17.19;100.00;97823.94;5033861;28;20122;-55
2023/03/23 11:19:54;;;;;;;;;;;;;;;17.60;100.00;97828.50;5035197;28;20468;-56
2023/03/23 11:22:29;;;;;;;;;;;;;;;16.30;100.00;97880.84;5038693;28;20388;-56
2023/03/23 11:24:55;;;;;;;;;;;;;;;16.74;100.00;97887.16;5036172;28;20412;-54
2023/03/23 11:27:21;;;;;;;;;;;;;;;15.83;100.00;97906.72;5038233;28;19971;-55
2023/03/23 11:30:10;;;;;;;;;;;;;;;15.04;100.00;97945.00;5036945;28;19971;-56
2023/03/23 11:32:36;;;;;;;;;;;;;;;14.62;100.00;97990.13;5030251;28;20007;-55
2023/03/23 11:35:04;;;;;;;;;;;;;;;12.77;100.00;98192.44;5037547;28;19936;-55
2023/03/23 11:37:33;;;;;;;;;;;;;;;12.86;100.00;98444.34;5035901;28;20469;-55
2023/03/23 11:40:06;;;;;;;;;;;;;;;12.61;100.00;98642.78;5038291;28;20152;-54
2023/03/23 11:42:31;;;;;;;;;;;;;;;12.30;100.00;98819.78;5038313;28;20366;-54
2023/03/23 11:45:08;;;;;;;;;;;;;;;12.30;100.00;99013.44;5034634;28;19924;-53
2023/03/23 11:47:38;;;;;;;;;;;;;;;11.91;100.00;99156.00;5038118;28;19924;-57
2023/03/23 11:50:03;;;;;;;;;;;;;;;12.26;100.00;99316.56;5035337;28;19917;-54
2023/03/23 11:52:33;;;;;;;;;;;;;;;12.10;100.00;99422.91;5038469;28;20369;-53
2023/03/23 11:55:02;;;;;;;;;;;;;;;12.26;85.46;99538.66;5036030;28;20003;-52
2023/03/23 11:57:30;;;;;;;;;;;;;;;12.58;77.10;99622.06;5036385;28;19917;-50
2023/03/23 11:59:59;;;;;;;;;;;;;;;12.36;72.64;99692.44;5037219;28;20714;-51
2023/03/23 12:02:32;;;;;;;;;;;;;;;12.69;66.75;99772.47;5038197;28;20241;-50
2023/03/23 12:04:58;;;;;;;;;;;;;;;12.52;65.46;99827.19;5035273;28;20361;-50
2023/03/23 12:07:38;;;;;;;;;;;;;;;13.07;61.76;99904.97;5038449;28;20012;-49
2023/03/23 12:10:22;;;;;;;;;;;;;;;13.83;62.56;99963.22;5037712;28;19946;-49
2023/03/23 12:12:56;;;;;;;;;;;;;;;15.89;62.18;100058.41;5037685;28;20428;-49
2023/03/23 12:15:31;;;;;;;;;;;;;;;14.98;84.17;99931.00;5037073;28;19920;-49
2023/03/23 12:18:11;;;;;;;;;;;;;;;15.53;100.00;99830.38;5036024;28;19917;-50
2023/03/23 12:20:36;;;;;;;;;;;;;;;15.88;100.00;99747.63;5036458;28;20015;-50
2023/03/23 12:23:07;;;;;;;;;;;;;;;15.57;100.00;99655.38;5038058;28;20247;-50
2023/03/23 12:25:43;;;;;;;;;;;;;;;15.09;100.00;99642.66;5036229;28;19920;-50
2023/03/23 12:28:22;;;;;;;;;;;;;;;16.12;100.00;99683.34;5036065;28;19970;-52
2023/03/23 12:31:06;;;;;;;;;;;;;;;15.56;100.00;99546.41;5036549;28;20425;-50
2023/03/23 12:33:53;;;;;;;;;;;;;;;15.38;100.00;99517.75;5036163;28;19927;-51
2023/03/23 12:36:18;;;;;;;;;;;;;;;14.38;100.00;99521.00;5035315;28;19920;-50
2023/03/23 12:38:48;;;;;;;;;;;;;;;14.90;100.00;99614.03;5037754;28;20046;-49
2023/03/23 12:41:16;;;;;;;;;;;;;;;14.39;100.00;99593.50;5036026;28;20080;-50